• Join FlightAware (Why Join?)
  • Login
  • US Flag 
08:20PM EDT


 

Airport Tracker/Info


-or-


 

Live Flight TrackerFlight Track Log ✈ JZA8439 ✈ 06-Sep-2013 ✈ CYQR - CYYC

Flight Track Log - Related Links

Times and Time Zones

All times are in EDT time to prevent confusion due to time zone crossing. See the JZA8439 flight status page for this flight to view local times or setup timezone preferences in your user account.

Time Position Orientation Groundspeed Altitude Reporting Facility
EDT Latitude Longitude Course Direction KTS MPH feet Rate Location/Type
02:55PM 50.4167 -104.7000 292° West 130 150 2,000  Level Winnipeg Center
02:56PM 50.4500 -104.7333 328° Northwest 170 196 3,600 1,680 Climbing Winnipeg Center
02:57PM 50.5000 -104.7833 328° Northwest 210 242 5,400 1,800 Climbing Winnipeg Center
02:58PM 50.5333 -104.8500 308° West 220 253 7,200 1,620 Climbing Winnipeg Center
02:58PM 50.5222 -104.9918 288° West  Level Estimated
02:59PM 50.4936 -105.2163 286° West  Level Estimated
02:59PM 50.5333 -104.9500 270° West 250 288 8,700  Level Winnipeg Center
03:00PM 50.5262 -105.3465 292° West  Level FlightAware Approximate
03:00PM 50.5667 -105.0667 294° West 270 311 9,800  Level Winnipeg Center
03:01PM 50.5667 -105.2000 270° West 280 322 11,200 1,320 Climbing Winnipeg Center
03:02PM 50.6000 -105.3167 294° West 290 334 12,500 1,500 Climbing Winnipeg Center
03:03PM 50.6167 -105.4500 281° West 270 311 14,200 1,500 Climbing Winnipeg Center
03:04PM 50.6333 -105.5500 285° West 270 311 15,500 1,200 Climbing Winnipeg Center
03:05PM 50.6034 -105.7901 284° West  Level Estimated
03:05PM 50.6500 -105.6667 283° West 270 311 16,600  Level Winnipeg Center
03:06PM 50.6422 -105.9091 297° West  Level FlightAware Approximate
03:06PM 50.6667 -105.7667 285° West 270 311 17,800  Level Winnipeg Center
03:07PM 50.6545 -106.0416 288° West  Level Estimated
03:07PM 50.6833 -105.8833 283° West 270 311 18,900  Level Winnipeg Center
03:08PM 50.6885 -106.1643 294° West  Level FlightAware Approximate
03:09PM 50.7001 -106.2971 282° West  Level Estimated
03:09PM 50.7167 -106.1333 282° West 260 299 20,800  Level Winnipeg Center
03:10PM 50.7289 -106.4232 290° West  Level FlightAware Approximate
03:10PM 50.7500 -106.2333 298° West 260 299 21,600  Level Winnipeg Center
03:11PM 50.7399 -106.5562 284° West  Level Estimated
03:11PM 50.7500 -106.3500 270° West 260 299 22,400  Level Winnipeg Center
03:12PM 50.7614 -106.6860 285° West  Level FlightAware Approximate
03:12PM 50.7833 -106.4667 294° West 260 299 23,100  Level Winnipeg Center
03:13PM 50.7827 -106.8159 285° West  Level FlightAware Approximate
03:13PM 50.7833 -106.5667 270° West 260 299 23,800  Level Winnipeg Center
03:14PM 50.8038 -106.9460 284° West  Level FlightAware Approximate
03:14PM 50.8167 -106.6833 294° West 260 299 24,000  Level Winnipeg Center
03:15PM 50.8249 -107.0762 284° West  Level FlightAware Approximate
03:15PM 50.8167 -106.7833 270° West 280 322 24,000  Level Winnipeg Center
03:16PM 50.8457 -107.2065 284° West  Level FlightAware Approximate
03:16PM 50.8333 -106.9167 281° West 290 334 24,000  Level Winnipeg Center
03:17PM 50.8665 -107.3369 284° West  Level FlightAware Approximate
03:17PM 50.8667 -107.0667 289° West 300 345 24,000  Level Winnipeg Center
03:18PM 50.8871 -107.4674 284° West  Level FlightAware Approximate
03:18PM 50.8833 -107.1833 283° West 300 345 24,000  Level Winnipeg Center
03:19PM 50.9075 -107.5980 284° West  Level FlightAware Approximate
03:19PM 50.8833 -107.3167 270° West 310 357 24,000  Level Winnipeg Center
03:20PM 50.9278 -107.7287 284° West  Level FlightAware Approximate
03:20PM 50.9167 -107.4500 292° West 310 357 24,000  Level Winnipeg Center
03:21PM 50.9480 -107.8596 284° West  Level FlightAware Approximate
03:21PM 50.9333 -107.5833 281° West 320 368 24,000  Level Winnipeg Center
03:22PM 50.9680 -107.9906 284° West  Level FlightAware Approximate
03:22PM 50.9500 -107.7333 280° West 320 368 24,000  Level Winnipeg Center
03:23PM 50.9878 -108.1216 284° West  Level FlightAware Approximate
03:23PM 50.9667 -107.8667 281° West 320 368 24,000  Level Winnipeg Center
03:24PM 51.0075 -108.2528 283° West  Level FlightAware Approximate
03:25PM 51.0271 -108.3841 283° West  Level FlightAware Approximate
03:25PM 51.0000 -108.1333 281° West 320 368 24,000  Level Winnipeg Center
03:26PM 51.0465 -108.5156 283° West  Level FlightAware Approximate
03:26PM 51.0167 -108.2833 280° West 330 380 24,000  Level Winnipeg Center
03:27PM 51.0658 -108.6471 283° West  Level FlightAware Approximate
03:27PM 51.0333 -108.4167 281° West 320 368 24,000  Level Winnipeg Center
03:28PM 51.0849 -108.7787 283° West  Level FlightAware Approximate
03:28PM 51.0500 -108.5500 281° West 320 368 24,000  Level Winnipeg Center
03:29PM 51.1039 -108.9105 283° West  Level FlightAware Approximate
03:29PM 51.0833 -108.7000 290° West 320 368 24,000  Level Winnipeg Center
03:30PM 51.1070 -109.0456 282° West  Level Estimated
03:30PM 51.1000 -108.8333 281° West 320 368 24,000  Level Winnipeg Center
03:31PM 51.1272 -109.1769 284° West  Level FlightAware Approximate
03:31PM 51.1167 -108.9667 281° West 320 368 24,000  Level Winnipeg Center
03:32PM 51.1472 -109.3084 284° West  Level FlightAware Approximate
03:32PM 51.1333 -109.1167 280° West 320 368 24,000  Level Winnipeg Center
03:33PM 51.1671 -109.4400 284° West  Level FlightAware Approximate
03:33PM 51.1500 -109.2500 281° West 320 368 24,000  Level Winnipeg Center
03:34PM 51.1869 -109.5716 284° West  Level FlightAware Approximate
03:34PM 51.1667 -109.4000 280° West 320 368 24,000  Level Winnipeg Center
03:35PM 51.2065 -109.7035 283° West  Level FlightAware Approximate
03:35PM 51.1667 -109.5333 270° West 320 368 24,000  Level Winnipeg Center
03:36PM 51.2259 -109.8354 283° West  Level FlightAware Approximate
03:36PM 51.2000 -109.6667 292° West 320 368 24,000  Level Winnipeg Center
03:37PM 51.2453 -109.9674 283° West  Level FlightAware Approximate
03:37PM 51.2167 -109.8167 280° West 320 368 24,000  Level Winnipeg Center
03:38PM 51.2431 -110.1029 273° West  Level Estimated
03:38PM 51.2333 -109.9500 281° West 320 368 24,000  Level Winnipeg Center
03:39PM 51.2477 -110.2383 273° West  Level FlightAware Approximate
03:39PM 51.2500 -110.0833 281° West 320 368 24,000  Level Winnipeg Center
03:40PM 51.2522 -110.3738 273° West  Level FlightAware Approximate
03:40PM 51.2500 -110.2500 270° West 320 368 24,000  Level Winnipeg Center
03:41PM 51.2564 -110.5092 273° West  Level FlightAware Approximate
03:41PM 51.2500 -110.3833 270° West 320 368 24,000  Level Winnipeg Center
03:42PM 51.2606 -110.6447 273° West  Level FlightAware Approximate
03:42PM 51.2500 -110.5167 270° West 320 368 24,000  Level Winnipeg Center
03:43PM 51.2645 -110.7802 273° West  Level FlightAware Approximate
03:43PM 51.2667 -110.6833 279° West 320 368 24,000  Level Winnipeg Center
03:44PM 51.2683 -110.9158 273° West  Level FlightAware Approximate
03:45PM 51.2720 -111.0513 273° West  Level FlightAware Approximate
03:46PM 51.2755 -111.1869 272° West  Level FlightAware Approximate
03:47PM 51.2788 -111.3225 272° West  Level FlightAware Approximate
03:48PM 51.2820 -111.4581 272° West  Level FlightAware Approximate
03:49PM 51.2850 -111.5937 272° West  Level FlightAware Approximate
03:50PM 51.2879 -111.7294 272° West  Level FlightAware Approximate
03:51PM 51.2906 -111.8650 272° West  Level FlightAware Approximate
03:52PM 51.2932 -112.0007 272° West  Level FlightAware Approximate
03:53PM 51.2956 -112.1364 272° West  Level FlightAware Approximate
03:54PM 51.2978 -112.2721 272° West  Level FlightAware Approximate
03:54PM 51.2833 -112.3333 283° West 350 403 20,100  Level Edmonton Center
03:55PM 51.2977 -112.4005 283° West  Level FlightAware Approximate
03:55PM 51.2833 -112.4833 270° West 350 403 18,500  Level Edmonton Center
03:56PM 51.3000 -112.6333 280° West 350 403 17,000 -1,620 Descending Edmonton Center
03:57PM 51.2833 -112.8000 261° West 330 380 15,300 -1,560 Descending Edmonton Center
03:58PM 51.2500 -112.9333 248° West 310 357 13,900 -1,500 Descending Edmonton Center
03:59PM 51.2333 -113.0667 259° West 310 357 12,400 -1,500 Descending Edmonton Center
04:00PM 51.2167 -113.2000 259° West 320 368 10,900 -1,260 Descending Edmonton Center
04:01PM 51.1833 -113.3167 246° West 300 345 9,900 -900 Descending Edmonton Center
04:02PM 51.1333 -113.4167 231° Southwest 290 334 9,100 -900 Descending Edmonton Center
04:03PM 51.1000 -113.5167 242° Southwest 280 322 8,200 -900 Descending Edmonton Center
04:04PM 51.0500 -113.6500 239° Southwest 270 311 7,300 -900 Descending Edmonton Center
04:05PM 51.0000 -113.7500 232° Southwest 260 299 6,400 -840 Descending Edmonton Center
04:06PM 51.0167 -113.8333 288° West 220 253 5,700 -720 Descending Edmonton Center
04:07PM 51.0500 -113.9167 302° West 200 230 5,000 -780 Descending Edmonton Center
04:08PM 51.0667 -113.9833 292° West 170 196 4,200 -780 Descending Edmonton Center
04:09PM 51.0833 -114.0333 298° West 130 150 3,500 -720 Descending Edmonton Center